createdAt,value
2022-09-06T00:01:23.709Z,4.10
2022-09-06T00:03:53.934Z,4.20
2022-09-06T00:06:23.927Z,3.80
2022-09-06T00:08:52.130Z,4.00
2022-09-06T00:11:22.322Z,4.40
2022-09-06T00:13:50.906Z,3.70
2022-09-06T00:16:29.786Z,4.40
2022-09-06T00:18:59.368Z,4.20
2022-09-06T00:21:29.874Z,4.60
2022-09-06T00:23:58.172Z,4.50
2022-09-06T00:26:26.841Z,4.20
2022-09-06T00:28:55.103Z,4.10
2022-09-06T00:31:26.076Z,4.00
2022-09-06T00:33:54.850Z,4.50
2022-09-06T00:36:24.043Z,4.60
2022-09-06T00:38:53.110Z,3.90
2022-09-06T00:41:22.017Z,4.20
2022-09-06T00:43:50.365Z,4.10
2022-09-06T00:46:23.961Z,4.10
2022-09-06T00:48:59.137Z,4.00
2022-09-06T00:51:30.474Z,3.90
2022-09-06T00:54:03.432Z,4.30
2022-09-06T00:56:35.596Z,4.00
2022-09-06T00:59:04.288Z,4.10
2022-09-06T01:01:34.293Z,4.10
2022-09-06T01:04:04.069Z,4.20
2022-09-06T01:06:44.425Z,3.90
2022-09-06T01:09:25.095Z,4.10
2022-09-06T01:11:59.627Z,4.10
2022-09-06T01:17:46.491Z,4.40
2022-09-06T01:20:25.150Z,4.20
2022-09-06T01:23:31.007Z,4.10
2022-09-06T01:26:18.620Z,3.70
2022-09-06T01:28:48.830Z,3.50
2022-09-06T01:31:23.092Z,3.20
2022-09-06T01:33:58.332Z,3.10
2022-09-06T01:36:33.435Z,3.70
2022-09-06T01:39:02.260Z,3.20
2022-09-06T01:41:31.487Z,3.40
2022-09-06T01:44:00.306Z,3.30
2022-09-06T01:46:57.339Z,3.50
2022-09-06T01:50:05.861Z,4.20
2022-09-06T01:52:44.398Z,3.90
2022-09-06T01:55:28.543Z,3.70
2022-09-06T01:57:59.698Z,4.20
2022-09-06T02:00:27.864Z,4.60
2022-09-06T02:03:03.188Z,4.40
2022-09-06T02:05:51.369Z,4.60
2022-09-06T02:08:28.508Z,4.00
2022-09-06T02:11:02.178Z,4.20
2022-09-06T02:13:36.892Z,4.20
2022-09-06T02:16:09.071Z,4.90
2022-09-06T02:18:43.991Z,4.80
2022-09-06T02:21:17.708Z,4.10
2022-09-06T02:23:47.630Z,3.90
2022-09-06T02:26:22.226Z,3.80
2022-09-06T02:28:50.750Z,4.70
2022-09-06T02:31:33.864Z,4.30
2022-09-06T02:34:03.072Z,4.20
2022-09-06T02:36:32.497Z,3.90
2022-09-06T02:39:05.885Z,3.90
2022-09-06T02:41:35.292Z,4.80
2022-09-06T02:44:03.978Z,4.30
2022-09-06T02:46:33.156Z,4.00
2022-09-06T02:49:02.330Z,4.00
2022-09-06T02:51:31.255Z,4.20
2022-09-06T02:53:59.484Z,4.20
2022-09-06T02:56:29.281Z,4.20
2022-09-06T02:58:57.669Z,4.00
2022-09-06T03:01:26.675Z,4.20
2022-09-06T03:03:54.934Z,4.60
2022-09-06T03:06:23.948Z,4.60
2022-09-06T03:08:52.313Z,5.00
2022-09-06T03:11:21.804Z,4.00
2022-09-06T03:13:51.206Z,4.20
2022-09-06T03:16:20.428Z,4.10
2022-09-06T03:18:49.625Z,5.20
2022-09-06T03:21:17.810Z,4.50
2022-09-06T03:23:46.121Z,4.20
2022-09-06T03:26:16.332Z,4.30
2022-09-06T03:28:46.155Z,4.90
2022-09-06T03:31:14.532Z,4.80
2022-09-06T03:33:43.251Z,4.50
2022-09-06T03:36:11.961Z,4.20
2022-09-06T03:38:40.404Z,3.60
2022-09-06T03:41:09.354Z,3.90
2022-09-06T03:43:37.652Z,3.40
2022-09-06T03:46:06.116Z,3.80
2022-09-06T03:48:34.494Z,4.00
2022-09-06T03:51:04.071Z,3.70
2022-09-06T03:53:32.853Z,4.20
2022-09-06T03:56:01.056Z,3.90
2022-09-06T03:58:32.204Z,4.50
2022-09-06T04:01:07.392Z,4.50
2022-09-06T04:03:37.076Z,3.70
2022-09-06T04:06:07.832Z,4.00
2022-09-06T04:08:37.589Z,4.20
2022-09-06T04:11:06.814Z,4.00
2022-09-06T04:13:36.694Z,4.00
2022-09-06T04:16:06.574Z,4.00
2022-09-06T04:18:35.864Z,4.00
2022-09-06T04:21:05.964Z,3.60
2022-09-06T04:23:37.742Z,4.00
2022-09-06T04:26:08.332Z,3.70
2022-09-06T04:28:36.821Z,17.30
2022-09-06T04:31:05.630Z,44.50
2022-09-06T04:33:36.707Z,68.50
2022-09-06T04:36:08.919Z,61.80
2022-09-06T04:38:43.412Z,80.20
2022-09-06T04:43:43.790Z,76.40
2022-09-06T04:46:28.242Z,64.50
2022-09-06T04:49:04.325Z,72.00
2022-09-06T04:51:39.398Z,26.40
2022-09-06T04:54:11.298Z,39.90
2022-09-06T04:56:56.024Z,54.30
2022-09-06T04:59:31.589Z,16.20
2022-09-06T05:02:00.939Z,18.00
2022-09-06T05:04:36.660Z,20.00
2022-09-06T05:07:14.690Z,20.30
2022-09-06T05:09:43.457Z,16.80
2022-09-06T05:12:12.693Z,17.30
2022-09-06T05:14:41.257Z,18.30
2022-09-06T05:17:10.237Z,16.50
2022-09-06T05:19:39.093Z,15.40
2022-09-06T05:22:07.513Z,15.20
2022-09-06T05:24:36.156Z,15.10
2022-09-06T05:27:05.759Z,17.30
2022-09-06T06:35:25.622Z,3.40
2022-09-06T06:38:03.942Z,2.60
2022-09-06T06:40:39.166Z,1.90
2022-09-06T06:43:15.250Z,1.90
2022-09-06T09:21:10.855Z,2.20
2022-09-06T09:24:06.600Z,2.30
2022-09-06T09:27:08.422Z,2.40
2022-09-06T09:32:55.576Z,2.70
2022-09-06T09:35:27.701Z,2.10
2022-09-06T09:38:10.857Z,2.00
2022-09-06T09:40:50.678Z,1.90
2022-09-06T09:43:35.793Z,1.60
2022-09-06T09:46:24.944Z,1.80
2022-09-06T09:49:22.106Z,1.40
2022-09-06T09:52:26.856Z,1.50
2022-09-06T09:55:04.888Z,1.70
2022-09-06T09:57:49.508Z,1.60
2022-09-06T10:00:39.958Z,2.00
2022-09-06T10:03:14.999Z,6.20
2022-09-06T10:06:02.515Z,2.10
2022-09-06T10:08:40.229Z,3.20
2022-09-06T10:11:14.345Z,2.40
2022-09-06T10:13:43.409Z,1.70
2022-09-06T10:16:13.577Z,2.20
2022-09-06T10:18:46.607Z,2.00
2022-09-06T10:21:24.154Z,1.60
2022-09-06T10:24:26.766Z,2.10
2022-09-06T10:27:03.558Z,2.70
2022-09-06T10:29:50.425Z,2.40
2022-09-06T10:32:31.942Z,2.10
2022-09-06T10:35:11.195Z,2.00
2022-09-06T10:37:39.715Z,1.80
2022-09-06T10:40:12.214Z,1.70
2022-09-06T10:42:56.501Z,1.60
2022-09-06T10:45:36.892Z,1.60
2022-09-06T10:48:14.699Z,1.80
2022-09-06T10:51:23.003Z,1.60
2022-09-06T10:53:58.636Z,1.80
2022-09-06T10:56:50.239Z,2.10
2022-09-06T11:02:44.322Z,2.70
2022-09-06T11:11:23.433Z,2.00
2022-09-06T11:13:54.040Z,2.20
2022-09-06T11:16:28.542Z,2.10
2022-09-06T11:19:17.990Z,2.00
2022-09-06T11:22:05.794Z,2.10
2022-09-06T11:24:37.321Z,2.00
2022-09-06T11:27:07.052Z,1.70
2022-09-06T11:29:40.182Z,1.80
2022-09-06T11:32:29.092Z,1.90
2022-09-06T11:35:01.094Z,1.90
2022-09-06T11:37:43.233Z,2.30
2022-09-06T11:42:59.595Z,1.90
2022-09-06T11:45:52.122Z,1.90
2022-09-06T11:48:24.565Z,2.60
2022-09-06T11:50:55.711Z,1.70
2022-09-06T11:53:28.803Z,2.00
2022-09-06T11:58:34.080Z,1.90
2022-09-06T12:01:21.103Z,2.50
2022-09-06T12:04:06.201Z,3.20
2022-09-06T12:07:05.320Z,2.00
2022-09-06T12:09:36.881Z,2.10
2022-09-06T12:12:06.042Z,1.80
2022-09-06T12:14:41.444Z,2.00
2022-09-06T12:17:11.705Z,9.00
2022-09-06T12:19:53.851Z,2.80
2022-09-06T12:22:36.916Z,14.40
2022-09-06T12:25:23.966Z,4.90
2022-09-06T12:28:00.310Z,7.40
2022-09-06T12:30:42.622Z,5.00
2022-09-06T12:33:38.983Z,4.00
2022-09-06T12:36:18.647Z,5.80
2022-09-06T12:39:08.500Z,2.80
2022-09-06T12:41:43.249Z,2.90
2022-09-06T12:44:15.120Z,2.20
2022-09-06T12:46:51.968Z,2.40
2022-09-06T12:49:26.049Z,2.70
2022-09-06T12:52:07.020Z,3.00
2022-09-06T12:54:43.806Z,2.70
2022-09-06T12:57:21.867Z,2.20
2022-09-06T12:59:54.172Z,2.90
2022-09-06T13:02:41.372Z,3.10
2022-09-06T13:05:13.502Z,2.50
2022-09-06T13:07:52.538Z,2.80
2022-09-06T13:10:26.691Z,2.40
2022-09-06T13:12:58.984Z,2.00
2022-09-06T13:15:31.580Z,2.00
2022-09-06T13:18:27.793Z,2.30
2022-09-06T13:21:01.885Z,2.50
2022-09-06T13:23:40.069Z,2.40
2022-09-06T13:26:08.888Z,2.50
2022-09-06T13:28:38.888Z,2.10
2022-09-06T13:31:14.625Z,2.10
2022-09-06T13:33:44.067Z,2.00
2022-09-06T13:36:12.842Z,2.30
2022-09-06T13:38:44.283Z,2.20
2022-09-06T13:41:25.958Z,2.30
2022-09-06T13:44:04.910Z,2.00
2022-09-06T13:46:35.342Z,2.30
2022-09-06T13:49:05.868Z,2.30
2022-09-06T13:51:35.795Z,2.40
2022-09-06T13:54:10.746Z,2.30
2022-09-06T13:56:40.996Z,1.90
2022-09-06T13:59:12.397Z,2.10
2022-09-06T14:01:44.938Z,2.20
2022-09-06T14:04:19.956Z,2.30
2022-09-06T14:06:51.383Z,1.90
2022-09-06T14:09:20.987Z,2.00
2022-09-06T14:11:52.654Z,2.10
2022-09-06T14:14:23.993Z,2.20
2022-09-06T14:16:54.375Z,2.40
2022-09-06T14:19:23.742Z,2.20
2022-09-06T14:21:54.621Z,2.70
2022-09-06T14:24:23.861Z,2.00
2022-09-06T14:26:52.706Z,2.10
2022-09-06T14:29:24.624Z,2.40
2022-09-06T14:31:55.911Z,1.90
2022-09-06T14:34:26.071Z,2.30
2022-09-06T14:36:55.053Z,2.20
2022-09-06T14:39:23.517Z,1.90
2022-09-06T14:41:52.549Z,2.40
2022-09-06T14:44:22.535Z,1.90
2022-09-06T14:46:53.773Z,2.30
2022-09-06T14:49:22.325Z,2.10
2022-09-06T14:51:54.034Z,1.80
2022-09-06T14:54:26.194Z,1.90
2022-09-06T14:56:57.901Z,1.90
2022-09-06T14:59:27.168Z,1.90
2022-09-06T15:01:57.875Z,2.20
2022-09-06T15:04:30.197Z,1.90
2022-09-06T15:07:01.065Z,1.60
2022-09-06T15:09:30.762Z,2.10
2022-09-06T15:12:01.458Z,1.90
2022-09-06T15:14:30.530Z,2.10
2022-09-06T15:17:00.975Z,2.10
2022-09-06T15:19:32.232Z,2.70
2022-09-06T15:22:01.407Z,3.80
2022-09-06T15:24:30.660Z,3.10
2022-09-06T15:27:39.837Z,2.30
2022-09-06T15:30:12.005Z,2.90
2022-09-06T15:32:43.454Z,3.50
2022-09-06T15:35:12.410Z,4.20
2022-09-06T15:37:42.738Z,4.20
2022-09-06T15:40:14.222Z,4.00
2022-09-06T15:42:45.314Z,4.10
2022-09-06T15:45:14.373Z,5.10
2022-09-06T15:47:44.069Z,5.20
2022-09-06T15:50:25.306Z,4.30
2022-09-06T15:53:03.527Z,5.10
2022-09-06T15:55:50.820Z,4.10
2022-09-06T15:58:20.332Z,4.50
2022-09-06T16:01:20.796Z,4.50
2022-09-06T16:03:55.576Z,3.80
2022-09-06T16:06:28.870Z,2.60
2022-09-06T16:09:05.555Z,2.60
2022-09-06T16:11:37.206Z,2.90
2022-09-06T16:14:08.140Z,2.90
2022-09-06T16:16:37.505Z,2.80
2022-09-06T16:19:07.418Z,2.70
2022-09-06T16:21:40.429Z,3.00
2022-09-06T16:24:11.775Z,3.90
2022-09-06T16:26:45.062Z,3.90
2022-09-06T16:29:16.620Z,3.30
2022-09-06T16:31:46.789Z,3.90
2022-09-06T16:34:16.755Z,3.60
2022-09-06T16:36:47.129Z,4.00
2022-09-06T16:39:16.045Z,3.60
2022-09-06T16:41:46.822Z,3.90
2022-09-06T16:44:18.579Z,3.20
2022-09-06T16:46:50.871Z,3.30
2022-09-06T16:49:21.112Z,3.30
2022-09-06T16:51:51.708Z,3.80
2022-09-06T16:54:21.088Z,4.60
2022-09-06T16:56:53.316Z,4.80
2022-09-06T16:59:22.630Z,7.10
2022-09-06T17:01:51.856Z,3.70
2022-09-06T17:04:21.268Z,4.70
2022-09-06T17:06:51.483Z,3.30
2022-09-06T17:09:21.223Z,12.70
2022-09-06T17:11:50.557Z,23.40
2022-09-06T17:14:19.562Z,4.70
2022-09-06T17:17:07.154Z,3.50
2022-09-06T17:19:45.074Z,4.30
2022-09-06T17:22:15.989Z,4.40
2022-09-06T17:24:45.105Z,6.50
2022-09-06T17:27:15.174Z,6.50
2022-09-06T17:29:44.021Z,5.40
2022-09-06T17:32:13.267Z,4.70
2022-09-06T17:34:42.656Z,57.00
2022-09-06T17:37:12.253Z,6.00
2022-09-06T17:39:42.414Z,5.60
2022-09-06T17:42:11.810Z,5.90
2022-09-06T17:44:40.287Z,6.60
2022-09-06T17:47:12.874Z,4.40
2022-09-06T17:49:45.078Z,5.30
2022-09-06T17:52:15.140Z,6.00
2022-09-06T17:54:46.857Z,10.00
2022-09-06T17:57:18.717Z,6.50
2022-09-06T17:59:47.937Z,5.20
2022-09-06T18:02:16.918Z,6.00
2022-09-06T18:04:45.923Z,8.50
2022-09-06T18:07:14.812Z,6.90
2022-09-06T18:09:43.891Z,7.90
2022-09-06T18:12:14.176Z,7.40
2022-09-06T18:14:44.149Z,5.70
2022-09-06T18:17:13.671Z,5.70
2022-09-06T18:19:45.077Z,5.40
2022-09-06T18:22:13.775Z,5.20
2022-09-06T18:24:42.286Z,6.30
2022-09-06T18:27:12.619Z,9.10
2022-09-06T18:29:41.598Z,10.00
2022-09-06T18:32:10.304Z,7.40
2022-09-06T18:34:39.754Z,20.90
2022-09-06T18:37:09.245Z,9.50
2022-09-06T18:39:37.758Z,5.50
2022-09-06T18:42:11.382Z,5.50
2022-09-06T18:44:40.739Z,5.00
2022-09-06T18:47:12.772Z,5.10
2022-09-06T18:49:44.271Z,18.00
2022-09-06T18:52:15.397Z,16.60
2022-09-06T18:54:45.268Z,10.60
2022-09-06T18:57:15.536Z,7.30
2022-09-06T18:59:44.959Z,9.40
2022-09-06T19:02:14.314Z,4.90
2022-09-06T19:04:42.838Z,4.10
2022-09-06T19:07:11.682Z,3.90
2022-09-06T19:09:40.046Z,4.50
2022-09-06T19:12:12.049Z,4.10
2022-09-06T19:14:40.682Z,4.20
2022-09-06T19:17:09.342Z,4.10
2022-09-06T19:19:39.431Z,4.90
2022-09-06T19:22:07.851Z,4.50
2022-09-06T19:24:39.626Z,4.70
2022-09-06T19:27:08.420Z,5.70
2022-09-06T19:29:38.251Z,6.40
2022-09-06T19:32:06.976Z,5.10
2022-09-06T19:34:35.802Z,5.20
2022-09-06T19:37:04.235Z,4.30
2022-09-06T19:39:37.007Z,5.30
2022-09-06T19:42:06.218Z,4.80
2022-09-06T19:44:34.597Z,3.80
2022-09-06T19:47:03.557Z,4.50
2022-09-06T19:49:32.376Z,5.80
2022-09-06T19:52:01.800Z,4.80
2022-09-06T19:54:31.289Z,4.40
2022-09-06T19:57:00.342Z,4.50
2022-09-06T19:59:28.876Z,4.20
2022-09-06T20:01:57.745Z,4.40
2022-09-06T20:04:28.487Z,5.20
2022-09-06T20:06:58.273Z,4.70
2022-09-06T20:09:26.774Z,4.40
2022-09-06T20:11:55.496Z,4.50
2022-09-06T20:14:25.956Z,4.80
2022-09-06T20:16:54.376Z,5.10
2022-09-06T20:19:22.821Z,5.00
2022-09-06T20:21:51.177Z,4.80
2022-09-06T20:24:21.207Z,4.30
2022-09-06T20:26:52.295Z,5.00
2022-09-06T20:29:21.530Z,4.10
2022-09-06T20:31:50.169Z,5.00
2022-09-06T20:34:18.991Z,4.80
2022-09-06T20:36:47.683Z,4.40
2022-09-06T20:39:16.070Z,3.90
2022-09-06T20:41:45.926Z,3.90
2022-09-06T20:44:15.657Z,4.40
2022-09-06T20:46:47.649Z,4.00
2022-09-06T20:49:16.881Z,3.60
2022-09-06T20:51:45.282Z,3.60
2022-09-06T20:54:14.304Z,3.50
2022-09-06T20:56:44.411Z,3.80
2022-09-06T20:59:13.760Z,4.10
2022-09-06T21:01:49.101Z,4.30
2022-09-06T21:04:18.337Z,4.70
2022-09-06T21:06:46.983Z,3.60
2022-09-06T21:09:15.799Z,3.30
2022-09-06T21:11:45.535Z,3.80
2022-09-06T21:14:15.187Z,3.60
2022-09-06T21:16:43.631Z,3.50
2022-09-06T21:19:12.779Z,3.70
2022-09-06T21:21:44.104Z,3.60
2022-09-06T21:24:16.376Z,3.70
2022-09-06T21:26:45.491Z,3.80
2022-09-06T21:29:14.217Z,4.00
2022-09-06T21:31:42.683Z,3.60
2022-09-06T21:34:17.193Z,3.90
2022-09-06T21:36:46.307Z,3.60
2022-09-06T21:39:15.108Z,3.50
2022-09-06T21:41:44.804Z,3.80
2022-09-06T21:44:13.764Z,3.40
2022-09-06T21:46:43.157Z,3.70
2022-09-06T21:49:14.018Z,4.00
2022-09-06T21:51:43.563Z,3.50
2022-09-06T21:54:12.981Z,3.20
2022-09-06T21:56:41.545Z,3.00
2022-09-06T21:59:11.205Z,3.70
2022-09-06T22:01:41.021Z,3.50
2022-09-06T22:04:10.618Z,3.90
2022-09-06T22:06:39.061Z,4.00
2022-09-06T22:09:11.285Z,3.70
2022-09-06T22:11:43.216Z,3.60
2022-09-06T22:14:15.500Z,3.50
2022-09-06T22:16:43.741Z,3.50
2022-09-06T22:19:13.699Z,4.30
2022-09-06T22:21:41.958Z,3.60
2022-09-06T22:24:13.428Z,3.90
2022-09-06T22:26:42.560Z,3.80
2022-09-06T22:29:15.851Z,3.70
2022-09-06T22:31:46.282Z,3.50
2022-09-06T22:34:14.487Z,3.90
2022-09-06T22:36:43.741Z,4.00
2022-09-06T22:39:12.719Z,3.70
2022-09-06T22:41:41.073Z,3.70
2022-09-06T22:44:09.560Z,4.00
2022-09-06T22:46:38.393Z,3.90
2022-09-06T22:49:10.130Z,4.20
2022-09-06T22:51:40.746Z,4.10
2022-09-06T22:54:10.006Z,3.70
2022-09-06T22:56:40.056Z,3.80
2022-09-06T22:59:08.879Z,3.90
2022-09-06T23:01:40.960Z,3.80
2022-09-06T23:04:10.023Z,4.00
2022-09-06T23:06:38.247Z,4.00
2022-09-06T23:09:07.210Z,4.00
2022-09-06T23:11:36.167Z,3.90
2022-09-06T23:14:05.722Z,3.70
2022-09-06T23:16:34.097Z,3.70
2022-09-06T23:19:02.705Z,4.40
2022-09-06T23:21:31.316Z,3.80
2022-09-06T23:24:00.188Z,4.30
2022-09-06T23:26:30.716Z,3.50
2022-09-06T23:28:59.241Z,3.80
2022-09-06T23:31:29.736Z,3.90
2022-09-06T23:33:59.887Z,3.90
2022-09-06T23:36:28.481Z,3.80
2022-09-06T23:38:57.450Z,3.70
2022-09-06T23:41:26.201Z,3.80
2022-09-06T23:43:56.260Z,3.40
2022-09-06T23:46:25.805Z,4.20
2022-09-06T23:48:53.981Z,4.10
2022-09-06T23:51:22.243Z,3.60
2022-09-06T23:53:50.641Z,4.00
2022-09-06T23:56:19.697Z,4.00
2022-09-06T23:58:48.706Z,3.90
